createdAt,value
2019-03-28T00:01:07.730Z,21.50
2019-03-28T00:03:37.995Z,21.33
2019-03-28T00:06:08.155Z,26.77
2019-03-28T00:08:38.302Z,20.93
2019-03-28T00:11:08.696Z,26.95
2019-03-28T00:13:38.863Z,24.63
2019-03-28T00:16:09.134Z,23.32
2019-03-28T00:18:39.262Z,25.95
2019-03-28T00:21:09.434Z,24.80
2019-03-28T00:24:04.640Z,31.07
2019-03-28T00:26:35.035Z,23.87
2019-03-28T00:29:05.226Z,23.50
2019-03-28T00:31:35.459Z,26.85
2019-03-28T00:34:05.604Z,24.07
2019-03-28T00:36:35.740Z,25.15
2019-03-28T00:39:07.104Z,24.67
2019-03-28T00:41:37.257Z,29.42
2019-03-28T00:44:07.375Z,26.77
2019-03-28T00:46:37.481Z,31.65
2019-03-28T00:49:07.570Z,24.20
2019-03-28T00:51:37.670Z,24.43
2019-03-28T00:54:07.725Z,25.80
2019-03-28T00:56:46.658Z,27.90
2019-03-28T00:59:09.598Z,27.27
2019-03-28T01:01:39.662Z,29.45
2019-03-28T01:04:09.764Z,29.72
2019-03-28T01:06:39.823Z,25.52
2019-03-28T01:09:10.203Z,28.02
2019-03-28T01:11:40.269Z,26.33
2019-03-28T01:14:10.333Z,28.37
2019-03-28T01:16:40.396Z,27.67
2019-03-28T01:19:10.473Z,24.05
2019-03-28T01:21:41.194Z,29.48
2019-03-28T01:24:11.407Z,30.77
2019-03-28T01:26:41.542Z,25.12
2019-03-28T01:29:11.616Z,29.23
2019-03-28T01:31:41.672Z,25.57
2019-03-28T01:34:11.741Z,27.15
2019-03-28T01:36:41.801Z,28.30
2019-03-28T01:39:11.876Z,30.92
2019-03-28T01:41:41.947Z,26.87
2019-03-28T01:44:12.011Z,32.48
2019-03-28T01:49:22.266Z,36.13
2019-03-28T01:51:52.333Z,33.30
2019-03-28T01:54:22.397Z,31.15
2019-03-28T01:56:52.496Z,31.17
2019-03-28T01:59:22.560Z,31.42
2019-03-28T02:01:53.617Z,27.77
2019-03-28T02:04:23.675Z,29.87
2019-03-28T02:06:53.774Z,32.70
2019-03-28T02:09:23.824Z,31.62
2019-03-28T02:11:53.900Z,29.10
2019-03-28T02:14:23.955Z,32.67
2019-03-28T02:16:54.042Z,31.12
2019-03-28T02:19:24.090Z,31.25
2019-03-28T02:21:54.265Z,32.95
2019-03-28T02:24:24.318Z,30.70
2019-03-28T02:26:54.403Z,31.90
2019-03-28T02:29:24.450Z,36.57
2019-03-28T02:31:54.526Z,31.60
2019-03-28T02:34:24.594Z,32.30
2019-03-28T02:36:54.646Z,34.13
2019-03-28T02:39:24.804Z,35.55
2019-03-28T02:41:54.857Z,36.55
2019-03-28T02:44:24.935Z,33.85
2019-03-28T02:46:55.007Z,33.33
2019-03-28T02:49:25.162Z,34.80
2019-03-28T02:51:55.686Z,32.05
2019-03-28T02:54:25.992Z,28.65
2019-03-28T02:56:56.052Z,35.57
2019-03-28T02:59:26.129Z,35.75
2019-03-28T03:01:56.205Z,35.70
2019-03-28T03:04:26.264Z,39.00
2019-03-28T03:06:56.353Z,36.23
2019-03-28T03:09:26.404Z,36.08
2019-03-28T03:11:56.524Z,31.68
2019-03-28T03:14:26.584Z,39.10
2019-03-28T03:16:56.687Z,32.95
2019-03-28T03:19:26.739Z,33.80
2019-03-28T03:21:56.842Z,32.70
2019-03-28T03:24:26.899Z,37.15
2019-03-28T03:26:57.006Z,36.33
2019-03-28T03:29:27.073Z,35.00
2019-03-28T03:31:57.177Z,30.27
2019-03-28T03:34:27.244Z,36.38
2019-03-28T03:36:57.315Z,35.80
2019-03-28T03:39:27.380Z,38.02
2019-03-28T03:41:57.446Z,40.23
2019-03-28T03:44:27.603Z,34.38
2019-03-28T03:46:57.699Z,33.02
2019-03-28T03:49:27.759Z,34.33
2019-03-28T03:51:57.854Z,33.25
2019-03-28T03:54:27.920Z,38.15
2019-03-28T03:56:58.000Z,35.40
2019-03-28T03:59:28.127Z,37.05
2019-03-28T04:01:58.169Z,35.98
2019-03-28T04:04:28.227Z,36.40
2019-03-28T04:06:58.328Z,37.60
2019-03-28T04:09:28.387Z,38.10
2019-03-28T04:11:58.475Z,34.10
2019-03-28T04:14:28.542Z,34.90
2019-03-28T04:16:58.645Z,37.50
2019-03-28T04:19:28.700Z,38.85
2019-03-28T04:21:58.809Z,38.20
2019-03-28T04:24:28.873Z,39.50
2019-03-28T04:26:58.951Z,37.48
2019-03-28T04:29:29.013Z,37.45
2019-03-28T04:32:00.097Z,38.42
2019-03-28T04:34:30.173Z,37.40
2019-03-28T04:37:00.225Z,36.75
2019-03-28T04:39:30.292Z,33.48
2019-03-28T04:42:00.557Z,32.98
2019-03-28T04:44:30.615Z,36.90
2019-03-28T04:47:00.688Z,37.28
2019-03-28T04:49:31.111Z,36.85
2019-03-28T04:52:01.183Z,31.52
2019-03-28T04:54:31.279Z,38.88
2019-03-28T04:57:01.509Z,39.55
2019-03-28T04:59:31.629Z,38.08
2019-03-28T05:02:03.762Z,38.70
2019-03-28T05:04:33.449Z,38.78
2019-03-28T05:07:03.497Z,39.67
2019-03-28T05:09:33.570Z,39.55
2019-03-28T05:12:03.636Z,42.40
2019-03-28T05:14:33.711Z,38.83
2019-03-28T05:17:03.780Z,37.05
2019-03-28T05:19:33.842Z,35.33
2019-03-28T05:22:03.926Z,32.23
2019-03-28T05:24:33.988Z,40.80
2019-03-28T05:27:04.094Z,34.58
2019-03-28T05:29:34.153Z,38.20
2019-03-28T05:32:04.246Z,35.65
2019-03-28T05:34:34.394Z,38.53
2019-03-28T05:37:04.640Z,35.10
2019-03-28T05:39:34.901Z,35.63
2019-03-28T05:42:05.133Z,32.95
2019-03-28T05:44:35.271Z,36.13
2019-03-28T05:47:05.355Z,35.23
2019-03-28T05:49:35.486Z,39.63
2019-03-28T05:52:05.625Z,38.33
2019-03-28T05:54:35.736Z,36.23
2019-03-28T05:57:06.797Z,34.53
2019-03-28T05:59:36.912Z,33.17
2019-03-28T06:02:07.139Z,43.42
2019-03-28T06:04:37.255Z,36.83
2019-03-28T06:07:08.858Z,39.75
2019-03-28T06:09:40.534Z,39.03
2019-03-28T06:12:10.893Z,36.42
2019-03-28T06:14:41.082Z,38.27
2019-03-28T06:17:11.171Z,37.30
2019-03-28T06:19:41.323Z,36.53
2019-03-28T06:22:11.425Z,33.67
2019-03-28T06:24:41.736Z,37.67
2019-03-28T06:27:11.859Z,38.78
2019-03-28T06:29:41.991Z,34.43
2019-03-28T06:32:12.094Z,43.60
2019-03-28T06:34:42.227Z,37.67
2019-03-28T06:37:12.362Z,33.73
2019-03-28T06:39:42.524Z,38.80
2019-03-28T06:42:12.641Z,40.58
2019-03-28T06:44:42.724Z,30.50
2019-03-28T06:47:13.687Z,40.60
2019-03-28T06:49:43.807Z,35.73
2019-03-28T06:52:13.922Z,38.70
2019-03-28T06:54:44.057Z,40.30
2019-03-28T06:57:14.179Z,35.38
2019-03-28T06:59:44.275Z,38.57
2019-03-28T07:02:14.415Z,40.47
2019-03-28T07:04:45.495Z,38.27
2019-03-28T07:07:18.349Z,33.70
2019-03-28T07:09:47.482Z,43.97
2019-03-28T07:12:18.394Z,42.30
2019-03-28T07:14:48.643Z,33.60
2019-03-28T07:17:19.516Z,36.25
2019-03-28T07:19:49.634Z,38.55
2019-03-28T07:22:19.808Z,46.57
2019-03-28T07:24:49.968Z,39.23
2019-03-28T07:27:20.054Z,38.98
2019-03-28T07:29:51.502Z,37.15
2019-03-28T07:32:22.572Z,38.67
2019-03-28T07:34:53.645Z,38.90
2019-03-28T07:37:23.819Z,39.48
2019-03-28T07:39:53.926Z,38.97
2019-03-28T07:42:24.019Z,40.65
2019-03-28T07:44:54.091Z,42.98
2019-03-28T07:47:24.186Z,41.60
2019-03-28T07:49:54.270Z,46.00
2019-03-28T07:52:24.326Z,40.33
2019-03-28T07:54:54.408Z,35.47
2019-03-28T07:57:24.497Z,42.33
2019-03-28T08:00:04.120Z,39.60
2019-03-28T08:02:26.356Z,40.00
2019-03-28T08:04:56.466Z,45.93
2019-03-28T08:07:26.536Z,41.20
2019-03-28T08:09:57.153Z,44.58
2019-03-28T08:12:27.254Z,37.00
2019-03-28T08:14:57.344Z,31.85
2019-03-28T08:17:27.425Z,37.30
2019-03-28T08:19:57.543Z,34.88
2019-03-28T08:22:29.647Z,33.45
2019-03-28T08:24:59.446Z,39.17
2019-03-28T08:27:29.537Z,33.50
2019-03-28T08:29:59.654Z,38.23
2019-03-28T08:32:29.798Z,39.07
2019-03-28T08:34:59.900Z,37.00
2019-03-28T08:37:30.039Z,28.70
2019-03-28T08:40:00.353Z,28.30
2019-03-28T08:42:30.348Z,29.18
2019-03-28T08:45:00.421Z,29.50
2019-03-28T08:47:30.503Z,28.65
2019-03-28T08:50:00.631Z,24.23
2019-03-28T08:52:30.677Z,27.17
2019-03-28T08:55:00.869Z,29.55
2019-03-28T08:57:30.957Z,27.85
2019-03-28T09:00:01.057Z,24.77
2019-03-28T09:02:32.166Z,21.17
2019-03-28T09:05:02.245Z,23.50
2019-03-28T09:07:32.310Z,25.60
2019-03-28T09:10:02.574Z,24.17
2019-03-28T09:12:35.184Z,24.18
2019-03-28T09:15:04.969Z,26.80
2019-03-28T09:17:35.058Z,22.62
2019-03-28T09:20:06.648Z,23.33
2019-03-28T09:22:38.995Z,26.37
2019-03-28T09:25:08.910Z,22.30
2019-03-28T09:27:39.018Z,31.80
2019-03-28T09:30:10.869Z,29.15
2019-03-28T09:32:41.098Z,25.02
2019-03-28T09:35:15.466Z,25.27
2019-03-28T09:37:45.560Z,29.57
2019-03-28T09:40:16.584Z,26.55
2019-03-28T09:42:46.691Z,22.93
2019-03-28T09:45:16.749Z,24.02
2019-03-28T09:47:46.835Z,25.97
2019-03-28T09:50:16.918Z,29.60
2019-03-28T09:52:46.977Z,24.12
2019-03-28T09:55:18.913Z,21.33
2019-03-28T09:57:48.887Z,19.37
2019-03-28T10:00:20.378Z,20.40
2019-03-28T10:02:50.439Z,22.82
2019-03-28T10:05:20.549Z,24.10
2019-03-28T10:07:50.602Z,22.93
2019-03-28T10:10:20.671Z,18.07
2019-03-28T10:12:50.765Z,20.60
2019-03-28T10:15:20.847Z,18.32
2019-03-28T10:17:51.025Z,22.03
2019-03-28T10:20:21.074Z,20.65
2019-03-28T10:22:51.147Z,16.20
2019-03-28T10:25:21.211Z,15.10
2019-03-28T10:27:51.303Z,17.20
2019-03-28T10:30:37.662Z,19.27
2019-03-28T10:33:08.370Z,15.25
2019-03-28T10:35:38.450Z,18.37
2019-03-28T10:38:08.751Z,15.48
2019-03-28T10:40:38.848Z,17.83
2019-03-28T10:43:08.911Z,15.15
2019-03-28T10:45:39.202Z,15.60
2019-03-28T10:48:09.346Z,14.10
2019-03-28T10:50:43.904Z,16.60
2019-03-28T10:53:11.227Z,14.70
2019-03-28T10:55:41.416Z,18.42
2019-03-28T10:58:18.911Z,15.32
2019-03-28T11:00:43.907Z,18.20
2019-03-28T11:03:14.044Z,15.35
2019-03-28T11:05:44.123Z,12.90
2019-03-28T11:08:14.182Z,13.83
2019-03-28T11:10:44.228Z,14.97
2019-03-28T11:13:14.318Z,11.95
2019-03-28T11:15:44.380Z,9.07
2019-03-28T11:18:14.458Z,15.40
2019-03-28T11:20:44.591Z,13.93
2019-03-28T11:23:14.691Z,11.30
2019-03-28T11:25:44.742Z,12.23
2019-03-28T11:28:15.766Z,6.03
2019-03-28T11:30:45.846Z,6.23
2019-03-28T11:33:15.914Z,11.35
2019-03-28T11:35:45.999Z,9.67
2019-03-28T11:38:16.067Z,10.70
2019-03-28T11:40:46.195Z,9.98
2019-03-28T11:43:16.292Z,9.93
2019-03-28T11:45:46.330Z,5.22
2019-03-28T11:48:16.435Z,7.60
2019-03-28T11:50:46.500Z,7.00
2019-03-28T11:53:16.665Z,7.28
2019-03-28T11:55:48.842Z,10.93
2019-03-28T11:58:18.578Z,11.85
2019-03-28T12:00:49.842Z,11.03
2019-03-28T12:03:19.922Z,8.35
2019-03-28T12:05:52.998Z,9.73
2019-03-28T12:08:21.834Z,10.80
2019-03-28T12:10:52.987Z,11.25
2019-03-28T12:13:24.046Z,12.27
2019-03-28T12:15:54.120Z,11.53
2019-03-28T12:18:25.220Z,11.50
2019-03-28T12:20:55.334Z,12.27
2019-03-28T12:23:25.415Z,10.08
2019-03-28T12:25:55.509Z,10.10
2019-03-28T12:28:25.676Z,11.90
2019-03-28T12:30:55.764Z,13.60
2019-03-28T12:33:25.834Z,14.57
2019-03-28T12:35:56.056Z,13.28
2019-03-28T12:38:26.125Z,14.30
2019-03-28T12:40:56.497Z,9.50
2019-03-28T12:43:26.588Z,11.93
2019-03-28T12:45:56.670Z,14.78
2019-03-28T12:48:26.746Z,13.43
2019-03-28T12:50:58.950Z,10.68
2019-03-28T12:53:28.580Z,13.10
2019-03-28T12:55:58.698Z,13.00
2019-03-28T12:58:29.767Z,18.12
2019-03-28T13:01:00.450Z,13.75
2019-03-28T13:03:44.446Z,13.95
2019-03-28T13:06:02.450Z,15.48
2019-03-28T13:08:32.513Z,12.20
2019-03-28T13:11:02.614Z,13.62
2019-03-28T13:13:32.738Z,14.45
2019-03-28T13:16:02.902Z,11.50
2019-03-28T13:18:35.919Z,12.17
2019-03-28T13:21:13.179Z,13.93
2019-03-28T13:23:36.526Z,12.17
2019-03-28T13:26:06.610Z,15.60
2019-03-28T13:28:36.693Z,12.43
2019-03-28T13:31:06.741Z,12.47
2019-03-28T13:33:36.952Z,12.77
2019-03-28T13:36:07.026Z,15.30
2019-03-28T13:38:37.121Z,14.03
2019-03-28T13:41:07.186Z,11.08
2019-03-28T13:43:37.314Z,13.10
2019-03-28T13:46:07.404Z,14.80
2019-03-28T13:48:37.452Z,14.98
2019-03-28T13:51:07.560Z,14.25
2019-03-28T13:53:39.709Z,14.58
2019-03-28T13:56:09.407Z,13.98
2019-03-28T13:58:39.631Z,13.15
2019-03-28T14:01:09.701Z,16.40
2019-03-28T14:03:39.815Z,13.18
2019-03-28T14:06:09.848Z,11.10
2019-03-28T14:08:39.897Z,10.90
2019-03-28T14:11:09.987Z,12.50
2019-03-28T14:13:40.036Z,11.28
2019-03-28T14:16:10.107Z,14.60
2019-03-28T14:18:40.183Z,14.10
2019-03-28T14:21:10.231Z,11.30
2019-03-28T14:23:40.304Z,10.35
2019-03-28T14:26:10.354Z,9.03
2019-03-28T14:28:40.503Z,10.00
2019-03-28T14:31:10.583Z,11.80
2019-03-28T14:33:40.634Z,12.88
2019-03-28T14:36:11.675Z,12.90
2019-03-28T14:38:41.732Z,13.13
2019-03-28T14:41:11.839Z,13.40
2019-03-28T14:43:41.904Z,12.68
2019-03-28T14:46:11.973Z,13.22
2019-03-28T14:48:42.067Z,12.53
2019-03-28T14:51:12.262Z,13.20
2019-03-28T14:53:43.268Z,14.03
2019-03-28T14:56:13.435Z,15.25
2019-03-28T14:58:43.890Z,13.32
2019-03-28T15:01:15.082Z,13.55
2019-03-28T15:03:45.230Z,10.80
2019-03-28T15:06:15.291Z,12.65
2019-03-28T15:08:45.361Z,12.25
2019-03-28T15:11:15.466Z,14.38
2019-03-28T15:13:46.602Z,14.45
2019-03-28T15:16:16.665Z,18.70
2019-03-28T15:18:46.724Z,15.08
2019-03-28T15:21:17.196Z,16.60
2019-03-28T15:23:47.363Z,14.43
2019-03-28T15:26:17.649Z,14.77
2019-03-28T15:28:47.744Z,12.98
2019-03-28T15:31:17.799Z,17.20
2019-03-28T15:33:47.847Z,14.63
2019-03-28T15:36:17.935Z,11.40
2019-03-28T15:38:47.997Z,15.10
2019-03-28T15:41:18.119Z,11.22
2019-03-28T15:43:48.159Z,16.77
2019-03-28T15:46:18.286Z,14.18
2019-03-28T15:48:48.365Z,14.50
2019-03-28T15:51:18.406Z,17.52
2019-03-28T15:53:49.609Z,12.88
2019-03-28T15:56:19.912Z,13.18
2019-03-28T15:58:49.976Z,13.08
2019-03-28T16:01:20.042Z,12.82
2019-03-28T16:03:53.116Z,16.95
2019-03-28T16:06:22.472Z,16.35
2019-03-28T16:08:53.560Z,13.05
2019-03-28T16:11:24.951Z,12.93
2019-03-28T16:13:56.104Z,13.18
2019-03-28T16:16:26.158Z,10.63
2019-03-28T16:18:56.247Z,11.15
2019-03-28T16:21:26.940Z,13.20
2019-03-28T16:23:57.127Z,11.97
2019-03-28T16:26:27.203Z,14.33
2019-03-28T16:28:57.276Z,9.13
2019-03-28T16:31:27.322Z,9.25
2019-03-28T16:34:06.900Z,12.68
2019-03-28T16:36:29.199Z,13.50
2019-03-28T16:38:59.245Z,12.95
2019-03-28T16:41:29.321Z,11.90
2019-03-28T16:43:59.797Z,11.57
2019-03-28T16:46:30.015Z,13.72
2019-03-28T16:49:00.071Z,17.32
2019-03-28T16:51:30.151Z,14.55
2019-03-28T16:54:00.202Z,16.77
2019-03-28T16:56:30.269Z,24.20
2019-03-28T16:59:00.376Z,20.92
2019-03-28T17:01:30.437Z,14.55
2019-03-28T17:04:00.503Z,13.72
2019-03-28T17:06:30.837Z,13.33
2019-03-28T17:09:01.672Z,17.00
2019-03-28T17:11:33.344Z,15.55
2019-03-28T17:14:03.488Z,16.97
2019-03-28T17:16:33.551Z,16.15
2019-03-28T17:19:03.631Z,19.92
2019-03-28T17:21:33.668Z,14.33
2019-03-28T17:24:03.753Z,17.17
2019-03-28T17:26:33.840Z,16.70
2019-03-28T17:29:04.955Z,16.05
2019-03-28T17:31:35.093Z,12.33
2019-03-28T17:34:05.178Z,15.23
2019-03-28T17:36:35.243Z,15.65
2019-03-28T17:39:06.994Z,15.83
2019-03-28T17:41:37.309Z,17.23
2019-03-28T17:44:07.942Z,15.48
2019-03-28T17:46:38.236Z,16.82
2019-03-28T17:49:08.300Z,12.35
2019-03-28T17:51:40.568Z,15.53
2019-03-28T17:54:11.829Z,15.25
2019-03-28T17:56:42.179Z,18.37
2019-03-28T17:59:12.336Z,17.67
2019-03-28T18:01:42.404Z,11.85
2019-03-28T18:04:22.337Z,16.87
2019-03-28T18:06:44.315Z,10.65
2019-03-28T18:09:14.369Z,13.83
2019-03-28T18:11:44.442Z,14.03
2019-03-28T18:14:14.491Z,19.15
2019-03-28T18:16:44.554Z,14.58
2019-03-28T18:19:14.628Z,12.30
2019-03-28T18:21:44.699Z,11.73
2019-03-28T18:24:15.565Z,15.18
2019-03-28T18:26:45.739Z,14.80
2019-03-28T18:29:19.109Z,15.28
2019-03-28T18:31:50.814Z,15.38
2019-03-28T18:34:19.362Z,17.77
2019-03-28T18:36:49.524Z,15.83
2019-03-28T18:39:19.575Z,14.15
2019-03-28T18:41:49.778Z,16.17
2019-03-28T18:44:19.817Z,14.23
2019-03-28T18:46:49.930Z,11.83
2019-03-28T18:49:20.094Z,14.47
2019-03-28T18:51:50.166Z,15.20
2019-03-28T18:54:20.498Z,16.73
2019-03-28T18:56:50.697Z,13.35
2019-03-28T18:59:21.857Z,15.68
2019-03-28T19:01:51.923Z,17.00
2019-03-28T19:04:21.970Z,15.00
2019-03-28T19:06:52.053Z,14.78
2019-03-28T19:09:22.126Z,16.70
2019-03-28T19:11:52.313Z,16.40
2019-03-28T19:14:22.451Z,15.10
2019-03-28T19:16:52.726Z,18.60
2019-03-28T19:19:22.852Z,21.80
2019-03-28T19:21:55.706Z,22.15
2019-03-28T19:24:24.742Z,19.92
2019-03-28T19:26:54.848Z,22.37
2019-03-28T19:29:24.984Z,18.87
2019-03-28T19:31:55.073Z,21.50
2019-03-28T19:34:25.239Z,18.92
2019-03-28T19:36:55.937Z,16.52
2019-03-28T19:39:31.412Z,15.87
2019-03-28T19:42:04.226Z,17.00
2019-03-28T19:44:33.408Z,17.80
2019-03-28T19:47:03.491Z,16.67
2019-03-28T19:49:33.680Z,14.05
2019-03-28T19:52:03.825Z,16.65
2019-03-28T19:54:34.037Z,15.18
2019-03-28T19:57:04.155Z,30.57
2019-03-28T19:59:35.271Z,53.55
2019-03-28T20:02:05.412Z,42.15
2019-03-28T20:04:35.593Z,35.77
2019-03-28T20:07:05.778Z,25.03
2019-03-28T20:09:35.884Z,18.90
2019-03-28T20:12:05.972Z,17.92
2019-03-28T20:14:36.080Z,24.43
2019-03-28T20:17:06.192Z,23.53
2019-03-28T20:19:36.288Z,25.17
2019-03-28T20:22:06.432Z,27.70
2019-03-28T20:24:36.514Z,20.25
2019-03-28T20:27:07.664Z,21.27
2019-03-28T20:29:39.986Z,24.00
2019-03-28T20:32:09.570Z,20.80
2019-03-28T20:34:39.691Z,20.10
2019-03-28T20:37:09.809Z,24.37
2019-03-28T20:39:39.918Z,23.18
2019-03-28T20:42:09.983Z,20.37
2019-03-28T20:44:40.106Z,20.70
2019-03-28T20:47:11.240Z,19.80
2019-03-28T20:49:41.342Z,19.48
2019-03-28T20:52:11.452Z,17.03
2019-03-28T20:54:41.562Z,20.47
2019-03-28T20:57:11.666Z,20.13
2019-03-28T20:59:41.744Z,23.42
2019-03-28T21:02:11.876Z,20.27
2019-03-28T21:04:42.005Z,20.80
2019-03-28T21:07:12.163Z,17.65
2019-03-28T21:09:42.274Z,21.75
2019-03-28T21:12:12.370Z,28.50
2019-03-28T21:14:42.489Z,22.40
2019-03-28T21:17:12.585Z,25.90
2019-03-28T21:19:42.699Z,25.40
2019-03-28T21:22:13.045Z,26.75
2019-03-28T21:24:43.149Z,25.53
2019-03-28T21:27:13.213Z,30.87
2019-03-28T21:29:48.805Z,28.00
2019-03-28T21:32:15.110Z,25.47
2019-03-28T21:34:45.189Z,29.07
2019-03-28T21:37:15.292Z,25.13
2019-03-28T21:39:45.362Z,26.17
2019-03-28T21:42:15.450Z,27.95
2019-03-28T21:44:45.527Z,24.53
2019-03-28T21:47:15.582Z,24.47
2019-03-28T21:49:45.689Z,27.80
2019-03-28T21:52:15.756Z,30.20
2019-03-28T21:54:45.867Z,22.55
2019-03-28T21:57:15.937Z,25.62
2019-03-28T21:59:46.465Z,25.97
2019-03-28T22:02:16.618Z,23.90
2019-03-28T22:04:46.701Z,21.65
2019-03-28T22:07:16.775Z,21.30
2019-03-28T22:09:46.889Z,23.83
2019-03-28T22:12:16.985Z,23.23
2019-03-28T22:14:48.364Z,24.83
2019-03-28T22:17:18.688Z,26.63
2019-03-28T22:19:48.788Z,23.27
2019-03-28T22:22:18.869Z,21.90
2019-03-28T22:24:48.959Z,22.70
2019-03-28T22:27:19.019Z,24.35
2019-03-28T22:29:49.158Z,24.10
2019-03-28T22:32:19.321Z,17.67
2019-03-28T22:34:49.452Z,17.32
2019-03-28T22:37:19.515Z,24.80
2019-03-28T22:39:49.628Z,21.17
2019-03-28T22:42:19.721Z,21.80
2019-03-28T22:44:51.060Z,18.65
2019-03-28T22:47:21.153Z,17.15
2019-03-28T22:49:51.231Z,19.05
2019-03-28T22:52:21.385Z,20.92
2019-03-28T22:54:51.475Z,20.45
2019-03-28T22:57:21.538Z,22.60
2019-03-28T22:59:52.240Z,21.10
2019-03-28T23:02:24.005Z,23.83
2019-03-28T23:04:54.165Z,22.32
2019-03-28T23:07:24.224Z,21.00
2019-03-28T23:09:54.306Z,25.08
2019-03-28T23:12:24.384Z,21.70
2019-03-28T23:14:54.447Z,20.30
2019-03-28T23:17:24.544Z,18.90
2019-03-28T23:19:54.603Z,21.52
2019-03-28T23:22:24.725Z,20.55
2019-03-28T23:24:54.802Z,22.60
2019-03-28T23:27:24.896Z,20.02
2019-03-28T23:29:54.959Z,20.20
2019-03-28T23:32:25.036Z,19.30
2019-03-28T23:34:55.144Z,23.02
2019-03-28T23:37:26.751Z,21.20
2019-03-28T23:39:57.002Z,21.80
2019-03-28T23:42:27.087Z,24.35
2019-03-28T23:44:57.144Z,20.75
2019-03-28T23:47:27.249Z,22.40
2019-03-28T23:49:58.275Z,22.42
2019-03-28T23:52:28.464Z,22.13
2019-03-28T23:54:58.540Z,20.85
2019-03-28T23:57:28.917Z,18.45
2019-03-28T23:59:59.207Z,23.65
